Time;durP1;ratioP1;P1;durP2;ratioP2;P2;SDS_P1;SDS_P2;PMS_P1;PMS_P2;Temp;Humidity;BMP_temperature;BMP_pressure;BME280_temperature;BME280_humidity;BME280_pressure;Samples;Min_cycle;Max_cycle;Signal;HPM_P1;HPM_P2
2023/11/19 00:01:12;;;;;;;27.60;25.40;;;;;;;;;;5050919;28;20555;-60
2023/11/19 00:03:38;;;;;;;27.30;25.10;;;;;;;;;;5086693;22;20392;-49
2023/11/19 00:06:04;;;;;;;29.13;26.73;;;;;;;;;;5090220;28;20270;-54
2023/11/19 00:08:30;;;;;;;29.52;27.23;;;;;;;;;;5089258;28;20582;-56
2023/11/19 00:10:56;;;;;;;29.50;27.10;;;;;;;;;;5071944;28;20508;-54
2023/11/19 00:13:23;;;;;;;28.13;25.92;;;;;;;;;;5072850;28;20145;-52
2023/11/19 00:15:49;;;;;;;30.88;28.48;;;;;;;;;;5089314;28;20024;-53
2023/11/19 00:18:15;;;;;;;28.45;26.15;;;;;;;;;;5090537;28;20082;-50
2023/11/19 00:20:44;;;;;;;28.15;25.95;;;;;;;;;;5089949;28;20024;-52
2023/11/19 00:23:10;;;;;;;29.83;27.52;;;;;;;;;;5091194;28;20024;-50
2023/11/19 00:25:38;;;;;;;28.80;26.55;;;;;;;;;;5091346;28;20020;-50
2023/11/19 00:28:04;;;;;;;29.40;27.00;;;;;;;;;;5091652;28;20089;-51
2023/11/19 00:30:31;;;;;;;29.02;26.73;;;;;;;;;;5090548;28;20428;-49
2023/11/19 00:32:57;;;;;;;29.20;26.90;;;;;;;;;;5091085;28;20059;-50
2023/11/19 00:35:23;;;;;;;27.98;25.77;;;;;;;;;;5091091;28;20016;-53
2023/11/19 00:37:50;;;;;;;28.10;25.90;;;;;;;;;;5089725;28;20034;-49
2023/11/19 00:40:18;;;;;;;27.73;25.52;;;;;;;;;;5089057;28;20055;-50
2023/11/19 00:42:44;;;;;;;26.58;24.40;;;;;;;;;;5091190;28;20439;-52
2023/11/19 00:45:10;;;;;;;28.60;26.33;;;;;;;;;;5089743;28;20050;-52
2023/11/19 00:47:36;;;;;;;27.50;25.30;;;;;;;;;;5090940;28;20020;-54
2023/11/19 00:50:03;;;;;;;27.00;24.80;;;;;;;;;;5090082;28;20216;-52
2023/11/19 00:52:29;;;;;;;26.40;24.27;;;;;;;;;;5090737;28;20027;-55
2023/11/19 00:54:56;;;;;;;26.95;24.75;;;;;;;;;;5089438;28;20375;-53
2023/11/19 00:57:23;;;;;;;27.50;25.30;;;;;;;;;;5090711;28;20103;-51
2023/11/19 00:59:49;;;;;;;25.23;23.13;;;;;;;;;;5089864;28;20028;-53
2023/11/19 01:02:16;;;;;;;25.95;23.85;;;;;;;;;;5089247;28;20023;-48
2023/11/19 01:04:42;;;;;;;26.60;24.40;;;;;;;;;;5091193;28;20490;-53
2023/11/19 01:07:12;;;;;;;26.20;24.10;;;;;;;;;;5090109;28;20020;-53
2023/11/19 01:09:38;;;;;;;27.38;25.17;;;;;;;;;;5090276;28;20112;-52
2023/11/19 01:12:04;;;;;;;27.67;25.48;;;;;;;;;;5088593;28;20486;-52
2023/11/19 01:14:30;;;;;;;28.08;25.88;;;;;;;;;;5088938;28;20020;-56
2023/11/19 01:16:57;;;;;;;29.95;27.52;;;;;;;;;;5090414;28;20085;-54
2023/11/19 01:19:24;;;;;;;29.77;27.48;;;;;;;;;;5090027;28;20027;-51
2023/11/19 01:21:50;;;;;;;32.05;29.55;;;;;;;;;;5089829;28;20089;-50
2023/11/19 01:24:16;;;;;;;29.58;27.27;;;;;;;;;;5088860;28;20056;-54
2023/11/19 01:26:45;;;;;;;29.42;27.05;;;;;;;;;;5090164;28;20028;-53
2023/11/19 01:29:14;;;;;;;29.05;26.75;;;;;;;;;;5088771;28;20024;-49
2023/11/19 01:31:41;;;;;;;30.58;28.08;;;;;;;;;;5089779;28;20020;-49
2023/11/19 01:34:07;;;;;;;28.25;26.05;;;;;;;;;;5090209;28;20054;-51
2023/11/19 01:36:33;;;;;;;29.77;27.20;;;;;;;;;;5090785;28;20020;-50
2023/11/19 01:38:59;;;;;;;30.50;28.10;;;;;;;;;;5090720;28;20092;-54
2023/11/19 01:41:25;;;;;;;29.63;27.33;;;;;;;;;;5089893;28;20469;-54
2023/11/19 01:43:51;;;;;;;29.92;27.52;;;;;;;;;;5090185;28;20026;-52
2023/11/19 01:46:17;;;;;;;29.77;27.48;;;;;;;;;;5090543;28;20035;-51
2023/11/19 01:48:45;;;;;;;29.38;27.08;;;;;;;;;;5089945;28;20028;-55
2023/11/19 01:51:12;;;;;;;29.27;26.98;;;;;;;;;;5089445;28;20055;-47
2023/11/19 01:53:39;;;;;;;28.02;25.83;;;;;;;;;;5088666;28;20057;-54
2023/11/19 01:56:11;;;;;;;28.40;26.20;;;;;;;;;;5089871;28;20031;-55
2023/11/19 01:58:38;;;;;;;29.85;27.42;;;;;;;;;;5088812;28;20028;-52
2023/11/19 02:01:04;;;;;;;27.05;24.88;;;;;;;;;;5088355;28;20020;-52
2023/11/19 02:03:32;;;;;;;30.10;27.60;;;;;;;;;;5090266;28;20021;-48
2023/11/19 02:05:59;;;;;;;27.05;24.85;;;;;;;;;;5090772;28;20031;-51
2023/11/19 02:08:26;;;;;;;26.83;24.67;;;;;;;;;;5090440;28;20028;-53
2023/11/19 02:10:52;;;;;;;25.88;23.77;;;;;;;;;;5088229;28;20024;-52
2023/11/19 02:13:18;;;;;;;28.17;25.70;;;;;;;;;;5089802;28;20440;-52
2023/11/19 02:15:44;;;;;;;28.35;25.92;;;;;;;;;;5088563;28;20151;-52
2023/11/19 02:18:19;;;;;;;28.45;25.98;;;;;;;;;;5090810;28;20499;-49
2023/11/19 02:20:45;;;;;;;24.33;22.13;;;;;;;;;;5093149;28;20055;-53
2023/11/19 02:23:12;;;;;;;25.38;23.17;;;;;;;;;;5092394;28;20025;-48
2023/11/19 02:25:39;;;;;;;23.92;21.83;;;;;;;;;;5093755;28;20032;-57
2023/11/19 02:28:05;;;;;;;23.67;21.48;;;;;;;;;;5093591;28;20031;-54
2023/11/19 02:30:31;;;;;;;24.80;22.70;;;;;;;;;;5093072;28;20047;-52
2023/11/19 02:32:58;;;;;;;23.00;21.00;;;;;;;;;;5092237;28;20030;-54
2023/11/19 02:35:30;;;;;;;22.30;20.20;;;;;;;;;;5092111;28;20055;-53
2023/11/19 02:37:56;;;;;;;23.52;21.33;;;;;;;;;;5093249;28;20103;-54
2023/11/19 02:40:24;;;;;;;25.55;23.25;;;;;;;;;;5092613;28;20047;-55
2023/11/19 02:42:50;;;;;;;23.83;21.70;;;;;;;;;;5092993;28;20620;-49
2023/11/19 02:45:17;;;;;;;20.35;18.45;;;;;;;;;;5091965;28;20043;-48
2023/11/19 02:47:43;;;;;;;21.42;18.25;;;;;;;;;;5093238;28;20022;-54
2023/11/19 02:50:14;;;;;;;23.27;21.08;;;;;;;;;;5090962;28;20393;-51
2023/11/19 02:52:43;;;;;;;20.10;18.20;;;;;;;;;;5093022;28;20486;-51
2023/11/19 02:55:10;;;;;;;21.35;19.35;;;;;;;;;;5091643;28;20020;-52
2023/11/19 02:57:36;;;;;;;19.40;17.58;;;;;;;;;;5091474;28;20051;-48
2023/11/19 03:00:11;;;;;;;21.77;19.33;;;;;;;;;;5092219;28;20024;-51
2023/11/19 03:02:44;;;;;;;22.23;19.90;;;;;;;;;;5092879;28;20030;-53
2023/11/19 03:05:10;;;;;;;19.13;17.33;;;;;;;;;;5091459;28;20024;-54
2023/11/19 03:07:37;;;;;;;19.33;17.52;;;;;;;;;;5090524;28;20495;-52
2023/11/19 03:10:05;;;;;;;19.00;17.20;;;;;;;;;;5092179;28;20024;-52
2023/11/19 03:12:31;;;;;;;21.88;19.67;;;;;;;;;;5092927;28;20017;-51
2023/11/19 03:14:57;;;;;;;21.75;17.30;;;;;;;;;;5093023;28;20095;-51
2023/11/19 03:17:24;;;;;;;19.90;17.90;;;;;;;;;;5092951;28;20062;-52
2023/11/19 03:19:50;;;;;;;19.52;17.52;;;;;;;;;;5092357;28;20024;-49
2023/11/19 03:22:16;;;;;;;21.05;18.83;;;;;;;;;;5093329;28;20497;-49
2023/11/19 03:24:42;;;;;;;19.30;17.40;;;;;;;;;;5093062;28;20028;-49
2023/11/19 03:27:08;;;;;;;18.80;17.00;;;;;;;;;;5092764;28;20381;-51
2023/11/19 03:29:34;;;;;;;18.83;17.02;;;;;;;;;;5091610;28;20025;-48
2023/11/19 03:32:00;;;;;;;27.17;18.27;;;;;;;;;;5090763;28;20016;-49
2023/11/19 03:34:26;;;;;;;17.92;16.13;;;;;;;;;;5091139;28;20028;-49
2023/11/19 03:36:52;;;;;;;17.65;15.85;;;;;;;;;;5092335;28;20027;-52
2023/11/19 03:39:18;;;;;;;21.30;14.25;;;;;;;;;;5092287;28;20048;-52
2023/11/19 03:41:47;;;;;;;16.55;14.15;;;;;;;;;;5092016;28;20381;-51
2023/11/19 03:44:13;;;;;;;20.92;14.82;;;;;;;;;;5092586;28;20095;-48
2023/11/19 03:46:39;;;;;;;21.05;14.95;;;;;;;;;;5092619;28;20024;-54
2023/11/19 03:49:06;;;;;;;15.95;12.60;;;;;;;;;;5090791;28;20393;-53
2023/11/19 03:51:34;;;;;;;16.27;12.25;;;;;;;;;;5089603;28;20032;-52
2023/11/19 03:54:00;;;;;;;19.00;13.38;;;;;;;;;;5091789;28;20043;-50
2023/11/19 03:56:27;;;;;;;16.05;13.38;;;;;;;;;;5091700;28;20020;-49
2023/11/19 03:58:53;;;;;;;16.55;11.70;;;;;;;;;;5091728;28;20032;-49
2023/11/19 04:01:19;;;;;;;19.10;13.95;;;;;;;;;;5091069;28;20024;-48
2023/11/19 04:03:45;;;;;;;17.10;12.90;;;;;;;;;;5090229;28;20043;-49
2023/11/19 04:06:11;;;;;;;16.13;12.10;;;;;;;;;;5090171;28;20025;-49
2023/11/19 04:08:37;;;;;;;15.63;11.95;;;;;;;;;;5091171;28;20066;-55
2023/11/19 04:11:05;;;;;;;17.23;10.02;;;;;;;;;;5090088;28;20020;-53
2023/11/19 04:13:31;;;;;;;15.77;10.07;;;;;;;;;;5092029;28;20077;-54
2023/11/19 04:15:57;;;;;;;12.80;7.53;;;;;;;;;;5091649;28;20032;-54
2023/11/19 04:18:23;;;;;;;14.05;7.53;;;;;;;;;;5091372;28;20048;-56
2023/11/19 04:20:50;;;;;;;11.70;6.80;;;;;;;;;;5090709;28;20028;-54
2023/11/19 04:23:16;;;;;;;11.55;6.72;;;;;;;;;;5089845;28;20038;-54
2023/11/19 04:25:42;;;;;;;15.73;10.02;;;;;;;;;;5091073;28;20020;-56
2023/11/19 04:28:09;;;;;;;18.05;8.75;;;;;;;;;;5091110;28;20088;-52
2023/11/19 04:30:35;;;;;;;22.58;8.07;;;;;;;;;;5090644;28;20028;-50
2023/11/19 04:33:01;;;;;;;12.02;7.10;;;;;;;;;;5090947;28;20020;-55
2023/11/19 04:35:27;;;;;;;10.30;6.07;;;;;;;;;;5089708;28;20035;-56
2023/11/19 04:37:53;;;;;;;9.75;5.75;;;;;;;;;;5091022;28;20032;-55
2023/11/19 04:40:22;;;;;;;10.32;6.20;;;;;;;;;;5090722;28;20107;-50
2023/11/19 04:42:48;;;;;;;10.48;5.50;;;;;;;;;;5090351;28;20043;-53
2023/11/19 04:45:16;;;;;;;14.38;6.15;;;;;;;;;;5091216;28;20020;-54
2023/11/19 04:47:42;;;;;;;8.70;5.00;;;;;;;;;;5091477;28;20355;-54
2023/11/19 04:50:10;;;;;;;9.52;5.22;;;;;;;;;;5090134;28;20039;-55
2023/11/19 04:52:36;;;;;;;;;;;;;;;;;;5091493;28;20028;-51
2023/11/19 04:55:02;;;;;;;11.43;5.45;;;;;;;;;;5090900;28;19908;-57
2023/11/19 04:57:28;;;;;;;9.18;5.18;;;;;;;;;;5090700;28;20546;-51
2023/11/19 04:59:54;;;;;;;8.00;4.80;;;;;;;;;;5089749;28;20059;-55
2023/11/19 05:02:20;;;;;;;10.02;5.97;;;;;;;;;;5090579;28;20016;-53
2023/11/19 05:04:46;;;;;;;9.90;5.28;;;;;;;;;;5090375;28;20028;-53
2023/11/19 05:07:12;;;;;;;14.57;5.72;;;;;;;;;;5090725;28;20028;-51
2023/11/19 05:09:38;;;;;;;17.30;7.35;;;;;;;;;;5089421;28;20419;-52
2023/11/19 05:12:04;;;;;;;11.65;5.43;;;;;;;;;;5089986;28;20044;-53
2023/11/19 05:14:30;;;;;;;19.55;7.85;;;;;;;;;;5090408;28;20031;-54
2023/11/19 05:16:56;;;;;;;11.98;6.43;;;;;;;;;;5090107;28;20027;-51
2023/11/19 05:19:22;;;;;;;9.15;5.25;;;;;;;;;;5090487;28;20023;-53
2023/11/19 05:21:51;;;;;;;10.70;5.18;;;;;;;;;;5090261;28;20024;-54
2023/11/19 05:24:17;;;;;;;10.18;5.28;;;;;;;;;;5090592;28;20081;-50
2023/11/19 05:26:43;;;;;;;14.30;6.60;;;;;;;;;;5088862;28;20494;-54
2023/11/19 05:29:09;;;;;;;12.40;7.80;;;;;;;;;;5088775;28;20031;-54
2023/11/19 05:31:35;;;;;;;9.32;5.28;;;;;;;;;;5089514;28;20020;-53
2023/11/19 05:34:01;;;;;;;11.90;6.15;;;;;;;;;;5090077;28;20390;-51
2023/11/19 05:36:28;;;;;;;12.20;7.30;;;;;;;;;;5090012;28;20024;-52
2023/11/19 05:38:54;;;;;;;11.52;6.38;;;;;;;;;;5090118;28;20601;-50
2023/11/19 05:41:20;;;;;;;12.55;7.13;;;;;;;;;;5089339;28;20024;-53
2023/11/19 05:43:46;;;;;;;11.85;6.15;;;;;;;;;;5089886;28;20081;-51
2023/11/19 05:46:13;;;;;;;9.30;5.50;;;;;;;;;;5088452;28;20115;-50
2023/11/19 05:48:39;;;;;;;9.50;5.80;;;;;;;;;;5089831;28;20420;-54
2023/11/19 05:51:05;;;;;;;9.02;5.22;;;;;;;;;;5089210;28;20024;-56
2023/11/19 05:53:31;;;;;;;24.67;7.30;;;;;;;;;;5090259;28;20020;-52
2023/11/19 05:55:58;;;;;;;22.65;6.53;;;;;;;;;;5094137;28;20055;-55
2023/11/19 05:58:26;;;;;;;14.60;6.25;;;;;;;;;;5092863;28;20034;-54
2023/11/19 06:00:52;;;;;;;10.23;5.63;;;;;;;;;;5093503;28;20027;-49
2023/11/19 06:05:58;;;;;;;16.95;7.50;;;;;;;;;;5077055;28;20116;-59
2023/11/19 06:08:26;;;;;;;12.05;6.00;;;;;;;;;;5079878;28;20060;-63
2023/11/19 06:10:52;;;;;;;10.43;5.53;;;;;;;;;;5078064;28;20027;-63
2023/11/19 06:13:19;;;;;;;14.88;8.27;;;;;;;;;;5080237;28;20050;-62
2023/11/19 06:15:45;;;;;;;14.40;6.32;;;;;;;;;;5079023;28;20036;-62
2023/11/19 06:18:12;;;;;;;9.65;5.35;;;;;;;;;;5077098;28;20031;-61
2023/11/19 06:20:38;;;;;;;16.52;7.95;;;;;;;;;;5078565;28;20031;-62
2023/11/19 06:23:04;;;;;;;8.43;4.97;;;;;;;;;;5078504;28;20088;-64
2023/11/19 06:25:30;;;;;;;13.10;6.60;;;;;;;;;;5080007;28;20060;-62
2023/11/19 06:27:57;;;;;;;11.95;5.57;;;;;;;;;;5079934;28;20530;-63
2023/11/19 06:30:23;;;;;;;15.68;7.05;;;;;;;;;;5079287;28;20035;-61
2023/11/19 06:32:49;;;;;;;15.45;6.40;;;;;;;;;;5079676;28;20040;-62
2023/11/19 06:35:15;;;;;;;14.77;5.80;;;;;;;;;;5079433;28;20036;-63
2023/11/19 06:37:41;;;;;;;8.15;4.85;;;;;;;;;;5077857;28;20036;-62
2023/11/19 06:40:09;;;;;;;14.82;5.93;;;;;;;;;;5079139;28;20482;-58
2023/11/19 06:42:35;;;;;;;13.50;6.30;;;;;;;;;;5078926;28;20021;-62
2023/11/19 06:45:01;;;;;;;15.23;6.28;;;;;;;;;;5079926;28;20020;-63
2023/11/19 06:47:27;;;;;;;11.98;5.30;;;;;;;;;;5079886;28;20461;-63
2023/11/19 06:49:54;;;;;;;17.00;9.07;;;;;;;;;;5077851;28;20080;-62
2023/11/19 06:52:20;;;;;;;17.98;7.03;;;;;;;;;;5078960;28;20017;-63
2023/11/19 06:54:46;;;;;;;11.73;5.28;;;;;;;;;;5078952;28;20036;-63
2023/11/19 06:57:12;;;;;;;20.77;7.45;;;;;;;;;;5079700;28;20032;-62
2023/11/19 06:59:38;;;;;;;19.58;8.88;;;;;;;;;;5077498;28;20020;-63
2023/11/19 07:02:05;;;;;;;8.93;5.10;;;;;;;;;;5079064;28;20024;-63
2023/11/19 07:04:31;;;;;;;28.33;8.52;;;;;;;;;;5078318;28;20275;-63
2023/11/19 07:06:57;;;;;;;9.18;5.03;;;;;;;;;;5079840;28;20505;-62
2023/11/19 07:09:23;;;;;;;9.80;5.72;;;;;;;;;;5078057;28;20028;-64
2023/11/19 07:11:51;;;;;;;18.48;5.75;;;;;;;;;;5078021;28;20028;-58
2023/11/19 07:14:18;;;;;;;19.85;6.72;;;;;;;;;;5078061;28;20086;-62
2023/11/19 07:16:45;;;;;;;10.10;5.47;;;;;;;;;;5078628;28;20471;-61
2023/11/19 07:19:11;;;;;;;10.93;5.63;;;;;;;;;;5078096;28;20032;-58
2023/11/19 07:21:39;;;;;;;17.50;6.43;;;;;;;;;;5078111;28;20045;-61
2023/11/19 07:24:05;;;;;;;16.08;5.47;;;;;;;;;;5078435;28;20051;-61
2023/11/19 07:26:31;;;;;;;16.55;6.43;;;;;;;;;;5078488;28;20028;-61
2023/11/19 07:28:58;;;;;;;10.48;5.38;;;;;;;;;;5078160;28;20039;-61
2023/11/19 07:31:24;;;;;;;12.23;5.70;;;;;;;;;;5076221;28;20059;-63
2023/11/19 07:33:50;;;;;;;16.17;6.03;;;;;;;;;;5077534;28;20350;-59
2023/11/19 07:36:16;;;;;;;15.00;7.25;;;;;;;;;;5077988;28;20490;-63
2023/11/19 07:38:43;;;;;;;11.70;7.22;;;;;;;;;;5078396;28;20033;-63
2023/11/19 07:41:12;;;;;;;17.30;6.60;;;;;;;;;;5077515;28;20017;-59
2023/11/19 07:43:38;;;;;;;8.85;5.03;;;;;;;;;;5076668;28;20024;-61
2023/11/19 07:46:04;;;;;;;11.35;5.65;;;;;;;;;;5077204;28;20082;-65
2023/11/19 07:48:30;;;;;;;18.08;7.18;;;;;;;;;;5078057;28;20062;-63
2023/11/19 07:50:56;;;;;;;13.02;6.85;;;;;;;;;;5076726;28;20449;-62
2023/11/19 07:53:22;;;;;;;10.07;5.55;;;;;;;;;;5078199;28;20021;-61
2023/11/19 07:55:48;;;;;;;18.38;9.07;;;;;;;;;;5077013;28;20162;-65
2023/11/19 07:58:14;;;;;;;12.30;6.82;;;;;;;;;;5078570;28;20035;-65
2023/11/19 08:00:41;;;;;;;25.10;8.65;;;;;;;;;;5076581;28;20027;-63
2023/11/19 08:03:07;;;;;;;18.05;7.40;;;;;;;;;;5070377;28;20467;-61
2023/11/19 08:05:33;;;;;;;13.27;5.93;;;;;;;;;;5074718;28;20029;-62
2023/11/19 08:07:59;;;;;;;27.25;6.50;;;;;;;;;;5058474;28;20196;-61
2023/11/19 08:10:25;;;;;;;8.60;5.10;;;;;;;;;;5061001;28;20015;-63
2023/11/19 08:12:51;;;;;;;9.65;5.50;;;;;;;;;;5076007;28;20026;-63
2023/11/19 08:15:17;;;;;;;10.55;5.65;;;;;;;;;;5075168;28;20028;-62
2023/11/19 08:17:43;;;;;;;14.50;6.97;;;;;;;;;;5074384;28;20021;-64
2023/11/19 08:20:10;;;;;;;16.45;6.25;;;;;;;;;;5059634;28;20109;-63
2023/11/19 08:22:37;;;;;;;21.95;8.00;;;;;;;;;;5056625;28;20079;-62
2023/11/19 08:25:05;;;;;;;11.45;6.35;;;;;;;;;;5056912;28;20066;-63
2023/11/19 08:27:31;;;;;;;8.80;5.18;;;;;;;;;;5057614;28;20403;-63
2023/11/19 08:29:57;;;;;;;15.15;7.18;;;;;;;;;;5055836;28;20112;-60
2023/11/19 08:32:26;;;;;;;10.77;5.35;;;;;;;;;;5055912;28;20029;-61
2023/11/19 08:34:52;;;;;;;10.70;4.90;;;;;;;;;;5056906;28;20483;-63
2023/11/19 08:37:20;;;;;;;20.33;8.60;;;;;;;;;;5069282;28;20123;-57
2023/11/19 08:39:47;;;;;;;11.77;6.70;;;;;;;;;;5069113;28;20028;-58
2023/11/19 08:42:13;;;;;;;27.88;6.97;;;;;;;;;;5069805;28;20052;-53
2023/11/19 08:44:40;;;;;;;14.68;6.32;;;;;;;;;;5069735;28;20028;-50
2023/11/19 08:47:06;;;;;;;21.55;8.20;;;;;;;;;;5069603;28;20019;-54
2023/11/19 08:49:32;;;;;;;13.20;7.03;;;;;;;;;;5069331;28;20179;-49
2023/11/19 08:51:58;;;;;;;11.70;5.90;;;;;;;;;;5068781;28;20021;-52
2023/11/19 08:54:24;;;;;;;15.50;6.30;;;;;;;;;;5069362;28;20351;-51
2023/11/19 08:56:50;;;;;;;15.48;6.13;;;;;;;;;;5069552;28;20052;-53
2023/11/19 08:59:16;;;;;;;18.20;8.55;;;;;;;;;;5069192;28;20402;-54
2023/11/19 09:01:42;;;;;;;20.75;5.82;;;;;;;;;;5068635;28;20021;-52
2023/11/19 09:04:08;;;;;;;11.57;6.18;;;;;;;;;;5069040;28;20021;-53
2023/11/19 09:06:36;;;;;;;22.95;9.20;;;;;;;;;;5069667;28;20035;-53
2023/11/19 09:09:03;;;;;;;8.80;5.30;;;;;;;;;;5062718;28;20198;-53
2023/11/19 09:11:32;;;;;;;11.45;6.00;;;;;;;;;;5057525;28;20320;-51
2023/11/19 09:13:58;;;;;;;14.77;7.32;;;;;;;;;;5057859;28;20024;-52
2023/11/19 09:16:25;;;;;;;11.85;9.43;;;;;;;;;;5060193;28;20032;-53
2023/11/19 09:18:51;;;;;;;12.43;5.97;;;;;;;;;;5053477;28;20037;-52
2023/11/19 09:21:17;;;;;;;37.10;8.25;;;;;;;;;;5048288;28;20033;-53
2023/11/19 09:23:44;;;;;;;16.88;7.07;;;;;;;;;;5047497;28;20021;-55
2023/11/19 09:26:10;;;;;;;14.95;8.35;;;;;;;;;;5049069;28;20025;-50
2023/11/19 09:28:36;;;;;;;13.38;5.88;;;;;;;;;;5048710;28;20113;-50
2023/11/19 09:31:06;;;;;;;17.75;6.93;;;;;;;;;;5048464;28;20029;-51
2023/11/19 09:33:33;;;;;;;10.38;6.78;;;;;;;;;;5049297;28;20090;-55
2023/11/19 09:35:59;;;;;;;10.35;6.07;;;;;;;;;;5049118;28;20099;-59
2023/11/19 09:38:25;;;;;;;8.95;5.03;;;;;;;;;;5061751;28;20037;-51
2023/11/19 09:40:51;;;;;;;16.48;8.55;;;;;;;;;;5069436;28;20348;-54
2023/11/19 09:43:17;;;;;;;16.42;8.60;;;;;;;;;;5069057;28;20076;-58
2023/11/19 09:45:50;;;;;;;19.92;7.63;;;;;;;;;;5068255;28;20112;-55
2023/11/19 09:48:20;;;;;;;12.75;6.43;;;;;;;;;;5068681;28;20021;-52
2023/11/19 09:50:47;;;;;;;12.20;5.88;;;;;;;;;;5067726;28;20083;-54
2023/11/19 09:53:14;;;;;;;13.77;6.25;;;;;;;;;;5069115;28;20032;-51
2023/11/19 09:55:40;;;;;;;13.18;6.43;;;;;;;;;;5069025;28;20032;-52
2023/11/19 09:58:07;;;;;;;8.50;5.00;;;;;;;;;;5069398;28;20553;-53
2023/11/19 10:00:33;;;;;;;19.73;7.97;;;;;;;;;;5067182;28;20025;-50
2023/11/19 10:03:00;;;;;;;26.23;8.30;;;;;;;;;;5069361;28;20051;-52
2023/11/19 10:05:26;;;;;;;16.55;6.28;;;;;;;;;;5068609;28;20043;-52
2023/11/19 10:07:52;;;;;;;23.27;6.28;;;;;;;;;;5068877;28;20023;-55
2023/11/19 10:10:19;;;;;;;18.83;7.28;;;;;;;;;;5068426;28;20426;-55
2023/11/19 10:12:48;;;;;;;14.93;5.95;;;;;;;;;;5068965;28;20394;-50
2023/11/19 10:15:24;;;;;;;14.52;7.30;;;;;;;;;;5069020;28;20070;-56
2023/11/19 10:18:00;;;;;;;13.35;9.65;;;;;;;;;;5068511;28;20106;-50
2023/11/19 10:20:26;;;;;;;30.42;9.18;;;;;;;;;;5066921;28;20017;-52
2023/11/19 10:22:55;;;;;;;9.35;5.55;;;;;;;;;;5068665;28;20020;-53
2023/11/19 10:25:31;;;;;;;17.95;8.52;;;;;;;;;;5067454;28;20020;-51
2023/11/19 10:27:57;;;;;;;31.52;9.38;;;;;;;;;;5068992;28;20020;-53
2023/11/19 10:30:26;;;;;;;15.30;6.75;;;;;;;;;;5068196;28;20031;-53
2023/11/19 10:33:08;;;;;;;10.93;6.88;;;;;;;;;;5069018;28;20031;-53
2023/11/19 10:35:53;;;;;;;17.80;6.68;;;;;;;;;;5067571;28;20068;-50
2023/11/19 10:38:19;;;;;;;9.85;5.68;;;;;;;;;;5068084;28;20125;-55
2023/11/19 10:40:45;;;;;;;15.75;6.95;;;;;;;;;;5071872;28;20082;-55
2023/11/19 10:43:11;;;;;;;11.25;6.95;;;;;;;;;;5072426;28;20372;-55
2023/11/19 10:45:38;;;;;;;16.77;6.93;;;;;;;;;;5070997;28;20074;-52
2023/11/19 10:48:07;;;;;;;11.55;7.07;;;;;;;;;;5071279;28;20017;-56
2023/11/19 10:50:35;;;;;;;18.02;6.60;;;;;;;;;;5071456;28;20029;-53
2023/11/19 10:53:01;;;;;;;21.60;7.30;;;;;;;;;;5072080;28;20040;-54
2023/11/19 10:55:29;;;;;;;17.27;6.82;;;;;;;;;;5062749;28;20410;-52
2023/11/19 10:57:59;;;;;;;14.20;8.20;;;;;;;;;;5056600;28;20024;-54
2023/11/19 11:00:25;;;;;;;13.95;6.32;;;;;;;;;;5059392;28;20013;-55
2023/11/19 11:02:55;;;;;;;16.05;6.60;;;;;;;;;;5064829;28;20033;-54
2023/11/19 11:05:21;;;;;;;11.65;5.97;;;;;;;;;;5051937;28;20043;-55
2023/11/19 11:07:47;;;;;;;16.60;7.53;;;;;;;;;;5052562;28;20092;-55
2023/11/19 11:10:14;;;;;;;12.00;6.88;;;;;;;;;;5049739;28;20485;-56
2023/11/19 11:12:41;;;;;;;29.88;6.70;;;;;;;;;;5051496;28;20104;-55
2023/11/19 11:15:08;;;;;;;19.65;7.15;;;;;;;;;;5051078;28;20063;-53
2023/11/19 11:17:34;;;;;;;14.10;7.47;;;;;;;;;;5051738;28;20044;-55
2023/11/19 11:20:00;;;;;;;18.15;7.72;;;;;;;;;;5051127;28;20523;-55
2023/11/19 11:22:29;;;;;;;13.90;7.32;;;;;;;;;;5051708;28;20083;-58
2023/11/19 11:24:58;;;;;;;14.95;7.88;;;;;;;;;;5051714;28;20073;-56
2023/11/19 11:27:33;;;;;;;12.45;6.63;;;;;;;;;;5057049;28;20032;-57
2023/11/19 11:30:19;;;;;;;18.83;8.27;;;;;;;;;;5053393;28;20029;-55
2023/11/19 11:32:48;;;;;;;18.30;8.57;;;;;;;;;;5053464;28;20021;-53
2023/11/19 11:35:17;;;;;;;13.05;6.82;;;;;;;;;;5070650;28;20482;-57
2023/11/19 11:37:47;;;;;;;32.15;10.85;;;;;;;;;;5069658;28;20032;-53
2023/11/19 11:40:18;;;;;;;17.27;6.07;;;;;;;;;;5069681;28;20021;-53
2023/11/19 11:42:44;;;;;;;14.38;6.97;;;;;;;;;;5070611;28;20016;-55
2023/11/19 11:45:11;;;;;;;15.63;8.32;;;;;;;;;;5070618;28;20382;-55
2023/11/19 11:47:46;;;;;;;10.32;5.90;;;;;;;;;;5068826;28;20024;-54
2023/11/19 11:50:16;;;;;;;14.32;6.82;;;;;;;;;;5070028;28;20025;-53
2023/11/19 11:52:57;;;;;;;22.98;9.27;;;;;;;;;;5071243;28;20017;-56
2023/11/19 11:55:27;;;;;;;13.23;7.78;;;;;;;;;;5071418;28;20029;-56
2023/11/19 11:57:54;;;;;;;10.45;5.70;;;;;;;;;;5070622;28;20111;-55
2023/11/19 12:00:42;;;;;;;21.90;9.70;;;;;;;;;;5068494;28;20021;-54
2023/11/19 12:03:08;;;;;;;10.25;6.03;;;;;;;;;;5070283;28;20028;-56
2023/11/19 12:05:39;;;;;;;9.38;5.50;;;;;;;;;;5083175;22;20045;-48
2023/11/19 12:08:06;;;;;;;17.25;6.60;;;;;;;;;;5053008;28;20044;-51
2023/11/19 12:10:37;;;;;;;13.10;6.78;;;;;;;;;;5052815;28;20494;-47
2023/11/19 12:13:08;;;;;;;9.43;5.60;;;;;;;;;;5071848;28;20207;-50
2023/11/19 12:15:34;;;;;;;14.48;6.63;;;;;;;;;;5046926;28;20017;-50
2023/11/19 12:18:00;;;;;;;25.40;6.55;;;;;;;;;;5046610;28;20552;-50
2023/11/19 12:20:27;;;;;;;9.82;5.80;;;;;;;;;;5042055;28;20025;-53
2023/11/19 12:22:54;;;;;;;27.48;9.80;;;;;;;;;;5027176;28;20106;-49
2023/11/19 12:25:20;;;;;;;19.83;7.22;;;;;;;;;;5036053;28;20045;-51
2023/11/19 12:27:46;;;;;;;12.77;6.35;;;;;;;;;;5031002;28;20053;-53
2023/11/19 12:30:13;;;;;;;9.60;5.70;;;;;;;;;;5029846;28;20094;-51
2023/11/19 12:32:40;;;;;;;13.90;7.72;;;;;;;;;;5030520;28;20083;-54
2023/11/19 12:35:06;;;;;;;10.18;5.88;;;;;;;;;;5029890;28;20025;-52
2023/11/19 12:37:32;;;;;;;15.70;6.15;;;;;;;;;;5030601;28;20499;-51
2023/11/19 12:39:58;;;;;;;13.18;5.78;;;;;;;;;;5029594;28;20030;-51
2023/11/19 12:42:38;;;;;;;9.90;5.63;;;;;;;;;;5030274;28;20047;-51
2023/11/19 12:45:04;;;;;;;13.13;6.80;;;;;;;;;;5029978;28;20028;-51
2023/11/19 12:47:30;;;;;;;10.15;5.95;;;;;;;;;;5029822;28;20028;-50
2023/11/19 12:49:57;;;;;;;10.50;6.20;;;;;;;;;;5029416;28;20033;-51
2023/11/19 12:52:23;;;;;;;9.95;5.93;;;;;;;;;;5030071;28;20033;-51
2023/11/19 12:54:49;;;;;;;23.50;7.60;;;;;;;;;;5029467;28;20030;-49
2023/11/19 12:57:15;;;;;;;9.40;5.53;;;;;;;;;;5029791;28;20040;-50
2023/11/19 12:59:42;;;;;;;10.10;6.25;;;;;;;;;;5029104;28;20030;-50
2023/11/19 13:02:09;;;;;;;14.80;8.60;;;;;;;;;;5028667;28;20129;-52
2023/11/19 13:04:35;;;;;;;14.82;7.68;;;;;;;;;;5043599;28;20028;-53
2023/11/19 13:07:03;;;;;;;20.75;7.53;;;;;;;;;;5049403;28;20033;-52
2023/11/19 13:09:29;;;;;;;15.88;7.18;;;;;;;;;;5031826;28;20053;-50
2023/11/19 13:11:56;;;;;;;9.35;5.55;;;;;;;;;;5049163;28;20051;-52
2023/11/19 13:14:23;;;;;;;10.48;6.10;;;;;;;;;;5031664;28;20029;-53
2023/11/19 13:16:50;;;;;;;11.55;6.45;;;;;;;;;;4681413;28;9999977;-51
2023/11/19 13:19:16;;;;;;;13.70;7.25;;;;;;;;;;5026482;28;20126;-50
2023/11/19 13:21:43;;;;;;;20.02;6.13;;;;;;;;;;5027523;28;20033;-48
2023/11/19 13:24:09;;;;;;;11.65;6.88;;;;;;;;;;5028594;28;20029;-51
2023/11/19 13:26:35;;;;;;;12.50;7.28;;;;;;;;;;5020557;28;20049;-51
2023/11/19 13:29:02;;;;;;;11.45;6.55;;;;;;;;;;5026094;28;20037;-52
2023/11/19 13:31:28;;;;;;;13.35;7.10;;;;;;;;;;5025085;28;20053;-51
2023/11/19 13:33:54;;;;;;;17.80;7.72;;;;;;;;;;5008476;28;20495;-54
2023/11/19 13:36:20;;;;;;;17.50;7.15;;;;;;;;;;5043963;28;20112;-54
2023/11/19 13:38:46;;;;;;;9.88;5.80;;;;;;;;;;5028186;28;20028;-53
2023/11/19 13:41:13;;;;;;;11.43;6.63;;;;;;;;;;5027270;28;20502;-52
2023/11/19 13:43:40;;;;;;;10.02;6.15;;;;;;;;;;5025429;28;20087;-51
2023/11/19 13:46:06;;;;;;;14.95;9.60;;;;;;;;;;5034231;28;20120;-50
2023/11/19 13:48:32;;;;;;;19.30;8.70;;;;;;;;;;5045344;28;20044;-52
2023/11/19 13:50:58;;;;;;;11.02;6.80;;;;;;;;;;5044410;28;20075;-53
2023/11/19 13:53:24;;;;;;;12.32;6.50;;;;;;;;;;5025648;28;20021;-51
2023/11/19 13:55:50;;;;;;;11.90;7.03;;;;;;;;;;5027177;28;20056;-52
2023/11/19 13:58:16;;;;;;;13.60;7.65;;;;;;;;;;5045215;28;20068;-52
2023/11/19 14:00:43;;;;;;;13.13;7.18;;;;;;;;;;5044386;28;20166;-51
2023/11/19 14:03:12;;;;;;;10.48;5.80;;;;;;;;;;5045435;28;20554;-50
2023/11/19 14:05:41;;;;;;;17.02;8.02;;;;;;;;;;5046933;28;20029;-53
2023/11/19 14:08:13;;;;;;;9.65;5.68;;;;;;;;;;5037148;28;20030;-52
2023/11/19 14:10:40;;;;;;;13.98;7.60;;;;;;;;;;5038207;28;20108;-51
2023/11/19 14:13:06;;;;;;;11.75;6.72;;;;;;;;;;5038191;28;20047;-51
2023/11/19 14:15:32;;;;;;;12.07;6.50;;;;;;;;;;5049203;28;20181;-52
2023/11/19 14:17:58;;;;;;;21.58;8.68;;;;;;;;;;5033795;28;20024;-56
2023/11/19 14:20:25;;;;;;;14.60;6.18;;;;;;;;;;4700855;28;10000620;-55
2023/11/19 14:22:52;;;;;;;11.18;8.32;;;;;;;;;;5046413;28;20033;-51
2023/11/19 14:25:18;;;;;;;12.32;6.63;;;;;;;;;;5049072;28;20021;-53
2023/11/19 14:27:48;;;;;;;15.05;6.82;;;;;;;;;;5039893;28;20029;-52
2023/11/19 14:30:15;;;;;;;13.10;6.53;;;;;;;;;;5048812;28;20033;-52